createdAt,value
2023-03-30T00:01:00.851Z,2.30
2023-03-30T00:03:30.742Z,2.72
2023-03-30T00:06:03.745Z,1.30
2023-03-30T00:08:30.982Z,1.85
2023-03-30T00:11:05.750Z,1.95
2023-03-30T00:13:33.815Z,2.40
2023-03-30T00:16:01.659Z,3.75
2023-03-30T00:18:30.079Z,3.17
2023-03-30T00:20:58.557Z,3.58
2023-03-30T00:23:26.222Z,3.47
2023-03-30T00:25:53.477Z,4.47
2023-03-30T00:28:20.739Z,1.98
2023-03-30T00:30:48.359Z,2.45
2023-03-30T00:33:15.975Z,3.80
2023-03-30T00:35:43.235Z,2.72
2023-03-30T00:38:10.592Z,5.82
2023-03-30T00:40:38.420Z,1.42
2023-03-30T00:43:07.516Z,2.30
2023-03-30T00:45:35.800Z,3.80
2023-03-30T00:48:11.967Z,1.58
2023-03-30T00:50:41.906Z,4.28
2023-03-30T00:53:41.739Z,1.67
2023-03-30T00:56:10.772Z,2.08
2023-03-30T00:58:39.057Z,2.10
2023-03-30T01:01:09.183Z,1.45
2023-03-30T01:03:48.164Z,2.13
2023-03-30T01:06:22.000Z,2.70
2023-03-30T01:08:49.575Z,2.42
2023-03-30T01:11:16.968Z,4.60
2023-03-30T01:13:46.064Z,5.10
2023-03-30T01:16:28.092Z,5.97
2023-03-30T01:19:16.354Z,4.22
2023-03-30T01:21:43.599Z,5.10
2023-03-30T01:24:11.124Z,4.40
2023-03-30T01:26:48.733Z,3.75
2023-03-30T01:29:18.744Z,4.03
2023-03-30T01:31:46.036Z,7.30
2023-03-30T01:34:31.929Z,6.00
2023-03-30T01:37:02.222Z,3.88
2023-03-30T01:39:33.264Z,5.03
2023-03-30T01:42:14.320Z,3.25
2023-03-30T01:44:50.359Z,2.88
2023-03-30T01:47:17.668Z,1.52
2023-03-30T01:49:50.805Z,6.00
2023-03-30T01:52:18.010Z,6.32
2023-03-30T01:55:05.674Z,2.65
2023-03-30T01:57:38.829Z,1.83
2023-03-30T02:00:14.346Z,4.00
2023-03-30T02:02:47.222Z,2.75
2023-03-30T02:05:17.955Z,3.03
2023-03-30T02:07:51.069Z,4.75
2023-03-30T02:10:19.307Z,2.78
2023-03-30T02:12:47.700Z,2.25
2023-03-30T02:15:16.793Z,1.35
2023-03-30T02:17:47.514Z,1.27
2023-03-30T02:20:17.615Z,3.45
2023-03-30T02:22:45.825Z,2.20
2023-03-30T02:25:13.539Z,2.08
2023-03-30T02:27:42.076Z,2.42
2023-03-30T02:30:10.262Z,2.55
2023-03-30T02:32:41.658Z,3.35
2023-03-30T02:35:11.585Z,5.28
2023-03-30T02:37:38.779Z,2.38
2023-03-30T02:40:13.391Z,5.20
2023-03-30T02:43:06.739Z,4.43
2023-03-30T02:45:49.777Z,4.30
2023-03-30T02:48:29.186Z,3.95
2023-03-30T02:51:15.473Z,4.68
2023-03-30T02:53:49.333Z,6.15
2023-03-30T02:56:16.554Z,3.85
2023-03-30T02:58:48.427Z,4.15
2023-03-30T03:01:18.733Z,3.33
2023-03-30T03:03:47.684Z,4.70
2023-03-30T03:06:15.634Z,2.95
2023-03-30T03:08:44.515Z,3.45
2023-03-30T03:11:12.056Z,4.57
2023-03-30T03:13:39.338Z,1.85
2023-03-30T03:16:08.096Z,4.10
2023-03-30T03:18:35.423Z,4.15
2023-03-30T03:21:02.832Z,2.45
2023-03-30T03:23:30.481Z,4.32
2023-03-30T03:25:57.710Z,4.95
2023-03-30T03:28:25.110Z,3.00
2023-03-30T03:30:53.342Z,2.95
2023-03-30T03:33:20.968Z,5.10
2023-03-30T03:35:48.245Z,1.25
2023-03-30T03:38:15.573Z,0.90
2023-03-30T03:40:42.934Z,1.15
2023-03-30T03:43:10.135Z,1.77
2023-03-30T03:45:37.496Z,2.35
2023-03-30T03:48:04.783Z,1.40
2023-03-30T03:50:32.037Z,1.25
2023-03-30T03:52:59.457Z,1.20
2023-03-30T03:55:28.609Z,4.38
2023-03-30T03:57:56.086Z,1.63
2023-03-30T04:00:23.648Z,0.95
2023-03-30T04:02:53.059Z,1.38
2023-03-30T04:05:20.353Z,1.63
2023-03-30T04:07:47.588Z,1.50
2023-03-30T04:10:15.479Z,0.73
2023-03-30T04:12:42.735Z,1.65
2023-03-30T04:15:10.374Z,1.20
2023-03-30T04:17:37.746Z,3.25
2023-03-30T04:20:06.080Z,1.42
2023-03-30T04:22:35.930Z,1.63
2023-03-30T04:25:07.061Z,2.63
2023-03-30T04:27:34.361Z,4.20
2023-03-30T04:30:02.205Z,2.92
2023-03-30T04:32:34.884Z,6.60
2023-03-30T04:35:03.390Z,5.57
2023-03-30T04:37:30.664Z,3.35
2023-03-30T04:39:58.744Z,3.55
2023-03-30T04:42:30.447Z,3.47
2023-03-30T04:44:58.052Z,5.18
2023-03-30T04:47:25.848Z,5.97
2023-03-30T04:49:53.109Z,2.78
2023-03-30T04:52:20.847Z,5.15
2023-03-30T04:54:48.058Z,5.57
2023-03-30T04:57:16.256Z,3.80
2023-03-30T04:59:44.289Z,5.55
2023-03-30T05:02:12.359Z,3.35
2023-03-30T05:04:40.093Z,4.78
2023-03-30T05:07:07.925Z,5.15
2023-03-30T05:09:35.775Z,4.30
2023-03-30T05:12:04.782Z,5.32
2023-03-30T05:14:32.043Z,6.32
2023-03-30T05:16:59.435Z,4.25
2023-03-30T05:19:26.775Z,5.55
2023-03-30T05:21:53.994Z,3.85
2023-03-30T05:24:21.464Z,3.58
2023-03-30T05:26:48.705Z,2.95
2023-03-30T05:29:17.322Z,3.75
2023-03-30T05:31:44.666Z,4.10
2023-03-30T05:34:11.903Z,4.40
2023-03-30T05:36:39.118Z,5.47
2023-03-30T05:39:07.584Z,3.05
2023-03-30T05:41:34.862Z,6.55
2023-03-30T05:44:02.123Z,10.63
2023-03-30T05:46:29.386Z,5.72
2023-03-30T05:48:56.740Z,7.90
2023-03-30T05:51:23.996Z,4.35
2023-03-30T05:53:51.224Z,6.63
2023-03-30T05:56:18.457Z,4.43
2023-03-30T05:58:45.704Z,6.18
2023-03-30T06:01:13.531Z,5.28
2023-03-30T06:03:42.115Z,3.45
2023-03-30T06:06:09.635Z,6.72
2023-03-30T06:08:36.898Z,6.30
2023-03-30T06:11:04.430Z,6.65
2023-03-30T06:13:31.967Z,6.05
2023-03-30T06:16:01.480Z,4.28
2023-03-30T06:18:30.384Z,5.68
2023-03-30T06:20:57.971Z,4.22
2023-03-30T06:23:25.259Z,5.25
2023-03-30T06:25:53.263Z,6.18
2023-03-30T06:28:21.187Z,5.88
2023-03-30T06:30:49.379Z,4.28
2023-03-30T06:33:17.728Z,4.28
2023-03-30T06:35:49.267Z,7.95
2023-03-30T06:38:17.321Z,7.05
2023-03-30T06:40:44.705Z,6.38
2023-03-30T06:43:16.062Z,6.00
2023-03-30T06:45:43.598Z,4.40
2023-03-30T06:48:10.934Z,4.18
2023-03-30T06:50:38.805Z,5.20
2023-03-30T06:53:06.168Z,4.57
2023-03-30T06:55:33.856Z,4.05
2023-03-30T06:58:01.200Z,2.78
2023-03-30T07:00:28.489Z,4.63
2023-03-30T07:02:56.355Z,5.35
2023-03-30T07:05:30.053Z,4.80
2023-03-30T07:07:57.768Z,5.45
2023-03-30T07:10:25.847Z,6.25
2023-03-30T07:12:53.163Z,4.47
2023-03-30T07:15:20.390Z,4.32
2023-03-30T07:17:47.712Z,4.72
2023-03-30T07:20:15.922Z,4.47
2023-03-30T07:22:43.731Z,3.60
2023-03-30T07:25:10.997Z,2.67
2023-03-30T07:27:38.503Z,4.03
2023-03-30T07:30:20.585Z,5.22
2023-03-30T07:32:49.263Z,6.38
2023-03-30T07:35:16.987Z,3.47
2023-03-30T07:37:44.268Z,2.72
2023-03-30T07:40:12.934Z,2.40
2023-03-30T07:42:40.331Z,4.60
2023-03-30T07:45:08.201Z,4.72
2023-03-30T07:47:35.668Z,5.72
2023-03-30T07:50:02.942Z,4.53
2023-03-30T07:52:30.445Z,5.93
2023-03-30T07:54:57.727Z,3.50
2023-03-30T07:57:25.161Z,2.97
2023-03-30T07:59:52.422Z,3.45
2023-03-30T08:02:19.637Z,3.17
2023-03-30T08:04:47.308Z,2.80
2023-03-30T08:07:14.784Z,4.68
2023-03-30T08:09:42.116Z,4.57
2023-03-30T08:12:09.359Z,3.78
2023-03-30T08:14:36.580Z,4.05
2023-03-30T08:17:04.398Z,3.88
2023-03-30T08:19:32.139Z,4.22
2023-03-30T08:22:01.815Z,6.95
2023-03-30T08:24:29.122Z,2.88
2023-03-30T08:26:56.415Z,4.60
2023-03-30T08:29:23.668Z,3.92
2023-03-30T08:31:54.088Z,4.80
2023-03-30T08:34:21.358Z,4.43
2023-03-30T08:36:48.561Z,2.72
2023-03-30T08:39:15.916Z,2.65
2023-03-30T08:41:44.113Z,2.92
2023-03-30T08:44:22.335Z,1.98
2023-03-30T08:46:50.570Z,3.05
2023-03-30T08:49:19.288Z,5.30
2023-03-30T08:51:47.867Z,3.90
2023-03-30T08:54:19.566Z,2.38
2023-03-30T08:57:05.504Z,4.65
2023-03-30T08:59:49.711Z,3.65
2023-03-30T09:02:19.325Z,4.38
2023-03-30T09:04:56.932Z,3.25
2023-03-30T09:07:25.975Z,1.80
2023-03-30T09:09:53.888Z,3.80
2023-03-30T09:12:45.167Z,2.50
2023-03-30T09:15:12.612Z,3.17
2023-03-30T09:18:18.826Z,3.33
2023-03-30T09:20:47.048Z,2.78
2023-03-30T09:23:15.678Z,4.80
2023-03-30T09:25:49.350Z,4.20
2023-03-30T09:28:21.497Z,4.50
2023-03-30T09:30:49.888Z,2.28
2023-03-30T09:33:23.202Z,3.85
2023-03-30T09:35:56.222Z,4.05
2023-03-30T09:38:23.546Z,4.65
2023-03-30T09:41:07.417Z,2.65
2023-03-30T09:43:37.521Z,4.25
2023-03-30T09:46:07.514Z,3.50
2023-03-30T09:48:42.242Z,3.45
2023-03-30T09:51:16.965Z,3.78
2023-03-30T09:53:46.013Z,4.20
2023-03-30T09:56:27.347Z,1.80
2023-03-30T09:58:54.954Z,4.70
2023-03-30T10:01:24.254Z,1.60
2023-03-30T10:04:07.225Z,4.88
2023-03-30T10:06:37.582Z,3.72
2023-03-30T10:09:06.992Z,3.80
2023-03-30T10:11:34.202Z,3.22
2023-03-30T10:14:01.713Z,4.43
2023-03-30T10:16:33.221Z,3.25
2023-03-30T10:19:04.641Z,4.45
2023-03-30T10:21:32.913Z,5.43
2023-03-30T10:24:11.307Z,5.95
2023-03-30T10:26:38.971Z,5.03
2023-03-30T10:29:07.686Z,6.03
2023-03-30T10:31:36.906Z,2.88
2023-03-30T10:34:05.138Z,1.85
2023-03-30T10:36:39.010Z,2.78
2023-03-30T10:39:26.616Z,8.15
2023-03-30T10:41:55.276Z,4.32
2023-03-30T10:44:25.117Z,2.33
2023-03-30T10:46:54.272Z,3.63
2023-03-30T10:49:27.407Z,2.85
2023-03-30T10:52:15.376Z,4.82
2023-03-30T10:54:45.865Z,3.95
2023-03-30T10:57:16.395Z,3.80
2023-03-30T10:59:53.941Z,5.38
2023-03-30T11:02:21.451Z,2.55
2023-03-30T11:05:04.630Z,4.88
2023-03-30T11:07:39.203Z,3.28
2023-03-30T11:10:17.960Z,4.40
2023-03-30T11:12:47.772Z,5.10
2023-03-30T11:15:44.323Z,3.50
2023-03-30T11:18:19.233Z,3.15
2023-03-30T11:21:04.840Z,2.83
2023-03-30T11:23:39.686Z,2.90
2023-03-30T11:26:09.862Z,3.95
2023-03-30T11:28:50.596Z,3.55
2023-03-30T11:31:17.846Z,2.92
2023-03-30T11:33:47.536Z,4.43
2023-03-30T11:36:40.823Z,6.78
2023-03-30T11:39:25.047Z,4.05
2023-03-30T11:42:09.136Z,4.20
2023-03-30T11:44:36.813Z,3.30
2023-03-30T11:47:07.242Z,2.70
2023-03-30T11:49:34.565Z,1.80
2023-03-30T11:52:07.902Z,4.35
2023-03-30T11:55:01.705Z,3.20
2023-03-30T11:57:30.520Z,1.98
2023-03-30T12:00:09.749Z,3.03
2023-03-30T12:02:37.081Z,1.88
2023-03-30T12:05:08.998Z,3.83
2023-03-30T12:07:36.360Z,1.77
2023-03-30T12:10:08.275Z,5.22
2023-03-30T12:12:39.209Z,2.80
2023-03-30T12:15:13.945Z,2.17
2023-03-30T12:17:43.988Z,3.15
2023-03-30T12:20:11.617Z,2.40
2023-03-30T12:22:43.981Z,2.30
2023-03-30T12:25:23.701Z,2.60
2023-03-30T12:27:59.856Z,2.92
2023-03-30T12:30:27.334Z,1.90
2023-03-30T12:33:12.222Z,2.33
2023-03-30T12:35:53.461Z,1.63
2023-03-30T12:38:23.714Z,2.05
2023-03-30T12:41:06.103Z,2.97
2023-03-30T12:43:51.711Z,1.92
2023-03-30T12:46:26.403Z,1.48
2023-03-30T12:48:53.716Z,2.47
2023-03-30T12:51:39.897Z,3.30
2023-03-30T12:54:08.392Z,0.90
2023-03-30T12:56:35.902Z,3.90
2023-03-30T12:59:09.004Z,3.30
2023-03-30T13:01:55.544Z,3.47
2023-03-30T13:04:24.619Z,3.35
2023-03-30T13:06:57.612Z,1.95
2023-03-30T13:09:27.958Z,2.08
2023-03-30T13:11:55.164Z,3.80
2023-03-30T13:14:44.396Z,3.28
2023-03-30T13:17:13.488Z,1.95
2023-03-30T13:19:42.810Z,2.33
2023-03-30T13:22:12.890Z,1.48
2023-03-30T13:24:43.591Z,1.40
2023-03-30T13:27:19.755Z,2.83
2023-03-30T13:29:54.801Z,2.53
2023-03-30T13:32:24.839Z,1.90
2023-03-30T13:35:06.261Z,2.00
2023-03-30T13:37:37.164Z,1.27
2023-03-30T13:40:10.812Z,1.20
2023-03-30T13:42:50.148Z,2.88
2023-03-30T13:45:36.279Z,2.30
2023-03-30T13:48:22.092Z,2.80
2023-03-30T13:50:52.863Z,2.53
2023-03-30T13:53:20.248Z,2.70
2023-03-30T13:55:48.875Z,3.28
2023-03-30T13:58:21.096Z,3.13
2023-03-30T14:00:52.944Z,3.47
2023-03-30T14:03:29.131Z,1.30
2023-03-30T14:06:03.240Z,1.38
2023-03-30T14:08:35.656Z,3.17
2023-03-30T14:11:09.281Z,0.90
2023-03-30T14:13:38.351Z,1.65
2023-03-30T14:16:07.024Z,1.58
2023-03-30T14:18:35.001Z,1.65
2023-03-30T14:21:04.056Z,3.33
2023-03-30T14:23:52.270Z,1.95
2023-03-30T14:26:29.543Z,1.05
2023-03-30T14:28:58.795Z,3.50
2023-03-30T14:31:29.271Z,2.03
2023-03-30T14:33:57.382Z,2.72
2023-03-30T14:36:25.444Z,2.35
2023-03-30T14:38:54.051Z,2.03
2023-03-30T14:41:23.936Z,2.10
2023-03-30T14:43:58.403Z,2.83
2023-03-30T14:46:28.368Z,1.58
2023-03-30T14:48:56.153Z,2.40
2023-03-30T14:51:24.979Z,2.80
2023-03-30T14:53:52.954Z,1.83
2023-03-30T14:56:20.689Z,3.10
2023-03-30T14:58:49.209Z,3.83
2023-03-30T15:01:17.945Z,3.85
2023-03-30T15:03:45.833Z,3.63
2023-03-30T15:06:16.577Z,3.97
2023-03-30T15:08:46.911Z,2.38
2023-03-30T15:11:22.325Z,3.83
2023-03-30T15:13:52.358Z,5.03
2023-03-30T15:16:23.995Z,3.30
2023-03-30T15:18:52.914Z,3.05
2023-03-30T15:21:20.848Z,4.05
2023-03-30T15:23:49.303Z,3.90
2023-03-30T15:26:16.981Z,2.78
2023-03-30T15:28:46.444Z,3.08
2023-03-30T15:31:14.999Z,2.85
2023-03-30T15:33:53.195Z,1.52
2023-03-30T15:36:36.773Z,3.20
2023-03-30T15:39:05.508Z,3.70
2023-03-30T15:41:47.389Z,2.55
2023-03-30T15:44:19.818Z,2.92
2023-03-30T15:46:48.276Z,1.85
2023-03-30T15:49:16.935Z,1.95
2023-03-30T15:51:48.261Z,3.13
2023-03-30T15:54:16.874Z,1.55
2023-03-30T15:56:47.042Z,1.42
2023-03-30T15:59:19.037Z,2.17
2023-03-30T16:01:52.495Z,0.98
2023-03-30T16:04:21.233Z,1.45
2023-03-30T16:06:48.804Z,0.98
2023-03-30T16:09:16.376Z,0.88
2023-03-30T16:11:45.117Z,1.63
2023-03-30T16:14:13.639Z,2.72
2023-03-30T16:16:40.961Z,1.45
2023-03-30T16:19:15.873Z,1.52
2023-03-30T16:21:45.289Z,2.63
2023-03-30T16:24:12.863Z,1.42
2023-03-30T16:26:40.273Z,1.20
2023-03-30T16:29:16.031Z,1.98
2023-03-30T16:31:43.341Z,2.13
2023-03-30T16:34:10.673Z,3.85
2023-03-30T16:36:37.910Z,2.05
2023-03-30T16:39:05.724Z,1.98
2023-03-30T16:41:33.006Z,2.95
2023-03-30T16:44:00.468Z,3.88
2023-03-30T16:46:27.734Z,3.88
2023-03-30T16:48:54.954Z,2.80
2023-03-30T16:51:24.149Z,2.03
2023-03-30T16:53:51.418Z,3.10
2023-03-30T16:56:19.756Z,2.42
2023-03-30T16:58:47.582Z,1.67
2023-03-30T17:01:18.561Z,1.88
2023-03-30T17:03:46.833Z,1.80
2023-03-30T17:06:16.268Z,1.27
2023-03-30T17:08:43.573Z,3.85
2023-03-30T17:11:13.430Z,2.58
2023-03-30T17:13:41.237Z,1.80
2023-03-30T17:16:09.107Z,3.47
2023-03-30T17:18:36.379Z,1.65
2023-03-30T17:21:03.847Z,4.35
2023-03-30T17:23:32.299Z,1.98
2023-03-30T17:26:00.289Z,2.45
2023-03-30T17:28:31.810Z,2.63
2023-03-30T17:31:01.281Z,1.77
2023-03-30T17:33:28.696Z,2.13
2023-03-30T17:35:58.155Z,5.95
2023-03-30T17:38:25.573Z,1.98
2023-03-30T17:40:52.869Z,2.80
2023-03-30T17:43:20.314Z,4.88
2023-03-30T17:45:47.621Z,3.25
2023-03-30T17:48:16.595Z,2.35
2023-03-30T17:50:46.160Z,2.13
2023-03-30T17:53:17.649Z,3.95
2023-03-30T17:55:46.192Z,3.72
2023-03-30T17:58:23.967Z,3.28
2023-03-30T18:00:52.454Z,2.00
2023-03-30T18:03:20.975Z,2.53
2023-03-30T18:05:48.816Z,1.85
2023-03-30T18:08:17.864Z,2.20
2023-03-30T18:10:48.129Z,3.15
2023-03-30T18:13:18.815Z,2.72
2023-03-30T18:15:49.245Z,3.47
2023-03-30T18:18:25.054Z,3.28
2023-03-30T18:20:55.959Z,4.82
2023-03-30T18:23:23.927Z,4.50
2023-03-30T18:25:51.512Z,4.03
2023-03-30T18:28:22.544Z,2.55
2023-03-30T18:30:50.977Z,2.78
2023-03-30T18:33:18.344Z,3.75
2023-03-30T18:35:46.968Z,2.38
2023-03-30T18:38:14.823Z,2.58
2023-03-30T18:40:45.240Z,3.95
2023-03-30T18:43:12.849Z,3.92
2023-03-30T18:45:41.251Z,1.55
2023-03-30T18:48:09.478Z,1.52
2023-03-30T18:50:43.675Z,1.63
2023-03-30T18:53:12.284Z,1.35
2023-03-30T18:55:40.863Z,1.23
2023-03-30T18:58:21.507Z,0.95
2023-03-30T19:00:49.418Z,1.95
2023-03-30T19:03:17.803Z,0.80
2023-03-30T19:05:45.361Z,1.10
2023-03-30T19:08:13.216Z,1.52
2023-03-30T19:10:41.905Z,1.50
2023-03-30T19:13:11.908Z,3.15
2023-03-30T19:15:39.332Z,4.28
2023-03-30T19:18:06.793Z,2.03
2023-03-30T19:20:35.224Z,2.42
2023-03-30T19:23:02.524Z,1.75
2023-03-30T19:25:29.861Z,2.13
2023-03-30T19:28:03.160Z,2.30
2023-03-30T19:30:32.993Z,2.53
2023-03-30T19:33:02.260Z,2.47
2023-03-30T19:35:29.907Z,1.73
2023-03-30T19:37:57.430Z,0.77
2023-03-30T19:40:24.850Z,2.35
2023-03-30T19:42:52.173Z,2.03
2023-03-30T19:45:20.810Z,1.67
2023-03-30T19:47:48.256Z,1.75
2023-03-30T19:50:18.031Z,2.05
2023-03-30T19:52:50.826Z,0.90
2023-03-30T19:55:19.131Z,1.17
2023-03-30T19:57:46.406Z,0.88
2023-03-30T20:00:18.291Z,2.05
2023-03-30T20:02:49.918Z,0.47
2023-03-30T20:05:18.320Z,2.35
2023-03-30T20:07:46.093Z,1.83
2023-03-30T20:10:16.530Z,0.32
2023-03-30T20:12:43.957Z,2.35
2023-03-30T20:15:11.590Z,1.08
2023-03-30T20:17:39.695Z,0.52
2023-03-30T20:20:09.287Z,3.10
2023-03-30T20:22:37.487Z,2.55
2023-03-30T20:25:05.228Z,2.33
2023-03-30T20:27:33.711Z,2.50
2023-03-30T20:30:01.238Z,3.03
2023-03-30T20:32:28.718Z,4.72
2023-03-30T20:34:56.467Z,4.57
2023-03-30T20:37:23.840Z,2.50
2023-03-30T20:39:51.162Z,3.42
2023-03-30T20:42:25.940Z,1.67
2023-03-30T20:44:53.723Z,5.40
2023-03-30T20:47:26.153Z,1.02
2023-03-30T20:49:53.836Z,2.20
2023-03-30T20:52:22.361Z,2.47
2023-03-30T20:54:49.590Z,1.17
2023-03-30T20:57:16.988Z,2.33
2023-03-30T20:59:44.202Z,2.15
2023-03-30T21:02:12.206Z,1.10
2023-03-30T21:04:39.481Z,0.93
2023-03-30T21:07:06.815Z,1.50
2023-03-30T21:09:34.238Z,0.80
2023-03-30T21:12:01.461Z,1.13
2023-03-30T21:14:28.701Z,0.85
2023-03-30T21:16:55.990Z,0.93
2023-03-30T21:19:23.240Z,0.90
2023-03-30T21:21:50.527Z,2.53
2023-03-30T21:24:18.631Z,0.90
2023-03-30T21:26:46.096Z,1.10
2023-03-30T21:29:13.461Z,0.40
2023-03-30T21:31:40.652Z,0.65
2023-03-30T21:34:09.323Z,0.40
2023-03-30T21:36:36.696Z,0.20
2023-03-30T21:39:04.102Z,0.20
2023-03-30T21:41:31.408Z,0.28
2023-03-30T21:43:58.657Z,0.45
2023-03-30T21:46:26.996Z,0.30
2023-03-30T21:48:54.757Z,0.20
2023-03-30T21:51:28.981Z,0.25
2023-03-30T21:53:56.967Z,0.35
2023-03-30T21:56:25.935Z,0.30
2023-03-30T21:58:53.443Z,0.20
2023-03-30T22:01:21.505Z,0.30
2023-03-30T22:03:48.806Z,0.30
2023-03-30T22:06:17.340Z,0.88
2023-03-30T22:08:45.507Z,0.25
2023-03-30T22:11:17.136Z,0.40
2023-03-30T22:13:46.134Z,0.30
2023-03-30T22:16:16.911Z,0.40
2023-03-30T22:18:44.484Z,0.30
2023-03-30T22:21:17.923Z,0.45
2023-03-30T22:23:45.494Z,0.30
2023-03-30T22:26:13.066Z,0.20
2023-03-30T22:28:40.668Z,0.95
2023-03-30T22:31:08.805Z,0.25
2023-03-30T22:33:36.028Z,0.35
2023-03-30T22:36:03.840Z,0.20
2023-03-30T22:38:31.786Z,0.43
2023-03-30T22:41:06.494Z,0.52
2023-03-30T22:43:34.726Z,0.20
2023-03-30T22:46:02.182Z,0.30
2023-03-30T22:48:29.555Z,0.20
2023-03-30T22:50:58.626Z,0.20
2023-03-30T22:53:26.062Z,1.15
2023-03-30T22:55:53.242Z,0.20
2023-03-30T22:58:20.549Z,0.30
2023-03-30T23:00:47.733Z,0.20
2023-03-30T23:03:15.114Z,0.35
2023-03-30T23:05:42.557Z,0.30
2023-03-30T23:08:10.665Z,0.30
2023-03-30T23:10:39.395Z,0.50
2023-03-30T23:13:06.595Z,0.30
2023-03-30T23:15:33.785Z,2.38
2023-03-30T23:18:01.079Z,1.13
2023-03-30T23:20:28.394Z,2.58
2023-03-30T23:22:55.663Z,1.08
2023-03-30T23:25:22.889Z,1.77
2023-03-30T23:27:50.548Z,4.28
2023-03-30T23:30:17.958Z,2.47
2023-03-30T23:32:45.266Z,3.15
2023-03-30T23:35:12.609Z,2.88
2023-03-30T23:37:40.214Z,2.45
2023-03-30T23:40:08.331Z,1.95
2023-03-30T23:42:36.216Z,2.22
2023-03-30T23:45:04.025Z,1.90
2023-03-30T23:47:31.760Z,4.97
2023-03-30T23:49:59.084Z,2.63
2023-03-30T23:52:27.021Z,0.90
2023-03-30T23:54:54.287Z,2.10
2023-03-30T23:57:21.574Z,4.53
2023-03-30T23:59:48.841Z,3.28
